sensor_id;sensor_type;location;lat;lon;timestamp;temperature;humidity
14192;DHT22;7177;48.572;7.838;2023-11-21T00:00:49;9.30;99.90
14192;DHT22;7177;48.572;7.838;2023-11-21T00:03:14;9.20;99.90
14192;DHT22;7177;48.572;7.838;2023-11-21T00:05:41;9.20;99.90
14192;DHT22;7177;48.572;7.838;2023-11-21T00:08:07;9.20;99.90
14192;DHT22;7177;48.572;7.838;2023-11-21T00:10:34;9.20;99.90
14192;DHT22;7177;48.572;7.838;2023-11-21T00:13:00;9.30;99.90
14192;DHT22;7177;48.572;7.838;2023-11-21T00:15:28;9.20;99.90
14192;DHT22;7177;48.572;7.838;2023-11-21T00:17:53;9.20;99.90
14192;DHT22;7177;48.572;7.838;2023-11-21T00:20:19;9.30;99.90
14192;DHT22;7177;48.572;7.838;2023-11-21T00:22:45;9.20;99.90
14192;DHT22;7177;48.572;7.838;2023-11-21T00:25:11;9.20;99.90
14192;DHT22;7177;48.572;7.838;2023-11-21T00:27:37;9.20;99.90
14192;DHT22;7177;48.572;7.838;2023-11-21T00:30:03;9.20;99.90
14192;DHT22;7177;48.572;7.838;2023-11-21T00:34:58;9.20;99.90
14192;DHT22;7177;48.572;7.838;2023-11-21T00:37:24;9.20;99.90
14192;DHT22;7177;48.572;7.838;2023-11-21T00:39:50;9.20;99.90
14192;DHT22;7177;48.572;7.838;2023-11-21T00:47:07;9.20;99.90
14192;DHT22;7177;48.572;7.838;2023-11-21T00:54:26;9.20;99.90
14192;DHT22;7177;48.572;7.838;2023-11-21T00:56:52;9.20;99.90
14192;DHT22;7177;48.572;7.838;2023-11-21T00:59:18;9.20;99.90
14192;DHT22;7177;48.572;7.838;2023-11-21T01:01:43;9.20;99.90
14192;DHT22;7177;48.572;7.838;2023-11-21T01:04:09;9.20;99.90
14192;DHT22;7177;48.572;7.838;2023-11-21T01:06:35;9.20;99.90
14192;DHT22;7177;48.572;7.838;2023-11-21T01:09:01;9.20;99.90
14192;DHT22;7177;48.572;7.838;2023-11-21T01:11:26;9.10;99.90
14192;DHT22;7177;48.572;7.838;2023-11-21T01:13:52;9.10;99.90
14192;DHT22;7177;48.572;7.838;2023-11-21T01:16:18;9.10;99.90
14192;DHT22;7177;48.572;7.838;2023-11-21T01:18:44;9.20;99.90
14192;DHT22;7177;48.572;7.838;2023-11-21T01:23:35;9.20;99.90
14192;DHT22;7177;48.572;7.838;2023-11-21T01:28:27;9.20;99.90
14192;DHT22;7177;48.572;7.838;2023-11-21T01:30:53;9.20;99.90
14192;DHT22;7177;48.572;7.838;2023-11-21T01:33:22;9.10;99.90
14192;DHT22;7177;48.572;7.838;2023-11-21T01:35:47;9.10;99.90
14192;DHT22;7177;48.572;7.838;2023-11-21T01:38:13;9.10;99.90
14192;DHT22;7177;48.572;7.838;2023-11-21T01:40:40;9.10;99.90
14192;DHT22;7177;48.572;7.838;2023-11-21T01:43:05;9.10;99.90
14192;DHT22;7177;48.572;7.838;2023-11-21T01:45:31;9.10;99.90
14192;DHT22;7177;48.572;7.838;2023-11-21T01:47:59;9.10;99.90
14192;DHT22;7177;48.572;7.838;2023-11-21T01:50:26;9.10;99.90
14192;DHT22;7177;48.572;7.838;2023-11-21T01:52:52;9.10;99.90
14192;DHT22;7177;48.572;7.838;2023-11-21T01:55:18;9.10;99.90
14192;DHT22;7177;48.572;7.838;2023-11-21T01:57:44;9.10;99.90
14192;DHT22;7177;48.572;7.838;2023-11-21T02:00:10;9.10;99.90
14192;DHT22;7177;48.572;7.838;2023-11-21T02:02:46;9.00;99.90
14192;DHT22;7177;48.572;7.838;2023-11-21T02:05:13;9.00;99.90
14192;DHT22;7177;48.572;7.838;2023-11-21T02:07:40;9.00;99.90
14192;DHT22;7177;48.572;7.838;2023-11-21T02:10:07;9.00;99.90
14192;DHT22;7177;48.572;7.838;2023-11-21T02:15:03;8.90;99.90
14192;DHT22;7177;48.572;7.838;2023-11-21T02:17:36;8.90;99.90
14192;DHT22;7177;48.572;7.838;2023-11-21T02:20:02;8.90;99.90
14192;DHT22;7177;48.572;7.838;2023-11-21T02:22:31;8.90;99.90
14192;DHT22;7177;48.572;7.838;2023-11-21T02:24:57;8.90;99.90
14192;DHT22;7177;48.572;7.838;2023-11-21T02:27:24;8.90;99.90
14192;DHT22;7177;48.572;7.838;2023-11-21T02:29:50;8.90;99.90
14192;DHT22;7177;48.572;7.838;2023-11-21T02:32:16;8.90;99.90
14192;DHT22;7177;48.572;7.838;2023-11-21T02:34:44;8.90;99.90
14192;DHT22;7177;48.572;7.838;2023-11-21T02:37:09;8.90;99.90
14192;DHT22;7177;48.572;7.838;2023-11-21T02:39:35;8.90;99.90
14192;DHT22;7177;48.572;7.838;2023-11-21T02:42:01;8.90;99.90
14192;DHT22;7177;48.572;7.838;2023-11-21T02:44:26;8.90;99.90
14192;DHT22;7177;48.572;7.838;2023-11-21T02:46:52;8.90;99.90
14192;DHT22;7177;48.572;7.838;2023-11-21T02:49:17;8.90;99.90
14192;DHT22;7177;48.572;7.838;2023-11-21T02:51:43;8.90;99.90
14192;DHT22;7177;48.572;7.838;2023-11-21T02:54:08;9.00;99.90
14192;DHT22;7177;48.572;7.838;2023-11-21T02:56:34;9.00;99.90
14192;DHT22;7177;48.572;7.838;2023-11-21T02:59:00;9.00;99.90
14192;DHT22;7177;48.572;7.838;2023-11-21T03:01:26;9.00;99.90
14192;DHT22;7177;48.572;7.838;2023-11-21T03:03:52;8.90;99.90
14192;DHT22;7177;48.572;7.838;2023-11-21T03:06:19;8.90;99.90
14192;DHT22;7177;48.572;7.838;2023-11-21T03:08:45;8.90;99.90
14192;DHT22;7177;48.572;7.838;2023-11-21T03:11:10;8.90;99.90
14192;DHT22;7177;48.572;7.838;2023-11-21T03:13:36;8.90;99.90
14192;DHT22;7177;48.572;7.838;2023-11-21T03:16:01;8.90;99.90
14192;DHT22;7177;48.572;7.838;2023-11-21T03:18:27;8.80;99.90
14192;DHT22;7177;48.572;7.838;2023-11-21T03:20:54;8.80;99.90
14192;DHT22;7177;48.572;7.838;2023-11-21T03:23:19;8.80;99.90
14192;DHT22;7177;48.572;7.838;2023-11-21T03:25:45;8.80;99.90
14192;DHT22;7177;48.572;7.838;2023-11-21T03:28:11;8.80;99.90
14192;DHT22;7177;48.572;7.838;2023-11-21T03:30:36;8.80;99.90
14192;DHT22;7177;48.572;7.838;2023-11-21T03:33:02;8.80;99.90
14192;DHT22;7177;48.572;7.838;2023-11-21T03:35:27;8.70;99.90
14192;DHT22;7177;48.572;7.838;2023-11-21T03:37:53;8.70;99.90
14192;DHT22;7177;48.572;7.838;2023-11-21T03:40:19;8.80;99.90
14192;DHT22;7177;48.572;7.838;2023-11-21T03:42:46;8.70;99.90
14192;DHT22;7177;48.572;7.838;2023-11-21T03:45:12;8.70;99.90
14192;DHT22;7177;48.572;7.838;2023-11-21T03:47:38;8.70;99.90
14192;DHT22;7177;48.572;7.838;2023-11-21T03:50:03;8.70;99.90
14192;DHT22;7177;48.572;7.838;2023-11-21T03:52:29;8.70;99.90
14192;DHT22;7177;48.572;7.838;2023-11-21T03:54:55;8.70;99.90
14192;DHT22;7177;48.572;7.838;2023-11-21T03:57:21;8.80;99.90
14192;DHT22;7177;48.572;7.838;2023-11-21T03:59:46;8.80;99.90
14192;DHT22;7177;48.572;7.838;2023-11-21T04:02:12;8.70;99.90
14192;DHT22;7177;48.572;7.838;2023-11-21T04:04:38;8.80;99.90
14192;DHT22;7177;48.572;7.838;2023-11-21T04:07:04;8.80;99.90
14192;DHT22;7177;48.572;7.838;2023-11-21T04:09:30;8.80;99.90
14192;DHT22;7177;48.572;7.838;2023-11-21T04:11:55;8.80;99.90
14192;DHT22;7177;48.572;7.838;2023-11-21T04:14:21;8.70;99.90
14192;DHT22;7177;48.572;7.838;2023-11-21T04:16:46;8.80;99.90
14192;DHT22;7177;48.572;7.838;2023-11-21T04:19:12;8.70;99.90
14192;DHT22;7177;48.572;7.838;2023-11-21T04:21:41;8.70;99.90
14192;DHT22;7177;48.572;7.838;2023-11-21T04:24:07;8.70;99.90
14192;DHT22;7177;48.572;7.838;2023-11-21T04:26:33;8.70;99.90
14192;DHT22;7177;48.572;7.838;2023-11-21T04:28:58;8.70;99.90
14192;DHT22;7177;48.572;7.838;2023-11-21T04:31:24;8.70;99.90
14192;DHT22;7177;48.572;7.838;2023-11-21T04:33:50;8.70;99.90
14192;DHT22;7177;48.572;7.838;2023-11-21T04:36:15;8.80;99.90
14192;DHT22;7177;48.572;7.838;2023-11-21T04:38:41;8.70;99.90
14192;DHT22;7177;48.572;7.838;2023-11-21T04:41:06;8.70;99.90
14192;DHT22;7177;48.572;7.838;2023-11-21T04:43:32;8.70;99.90
14192;DHT22;7177;48.572;7.838;2023-11-21T04:45:57;8.70;99.90
14192;DHT22;7177;48.572;7.838;2023-11-21T04:48:23;8.70;99.90
14192;DHT22;7177;48.572;7.838;2023-11-21T04:50:48;8.70;99.90
14192;DHT22;7177;48.572;7.838;2023-11-21T04:53:14;8.70;99.90
14192;DHT22;7177;48.572;7.838;2023-11-21T04:55:40;8.60;99.90
14192;DHT22;7177;48.572;7.838;2023-11-21T04:58:06;8.60;99.90
14192;DHT22;7177;48.572;7.838;2023-11-21T05:00:31;8.60;99.90
14192;DHT22;7177;48.572;7.838;2023-11-21T05:02:57;8.60;99.90
14192;DHT22;7177;48.572;7.838;2023-11-21T05:05:22;8.60;99.90
14192;DHT22;7177;48.572;7.838;2023-11-21T05:07:49;8.60;99.90
14192;DHT22;7177;48.572;7.838;2023-11-21T05:10:15;8.60;99.90
14192;DHT22;7177;48.572;7.838;2023-11-21T05:12:41;8.60;99.90
14192;DHT22;7177;48.572;7.838;2023-11-21T05:15:08;8.60;99.90
14192;DHT22;7177;48.572;7.838;2023-11-21T05:17:37;8.60;99.90
14192;DHT22;7177;48.572;7.838;2023-11-21T05:20:05;8.60;99.90
14192;DHT22;7177;48.572;7.838;2023-11-21T05:22:34;8.60;99.90
14192;DHT22;7177;48.572;7.838;2023-11-21T05:25:00;8.60;99.90
14192;DHT22;7177;48.572;7.838;2023-11-21T05:27:25;8.60;99.90
14192;DHT22;7177;48.572;7.838;2023-11-21T05:29:50;8.60;99.90
14192;DHT22;7177;48.572;7.838;2023-11-21T05:32:16;8.60;99.90
14192;DHT22;7177;48.572;7.838;2023-11-21T05:34:42;8.60;99.90
14192;DHT22;7177;48.572;7.838;2023-11-21T05:37:08;8.60;99.90
14192;DHT22;7177;48.572;7.838;2023-11-21T05:39:34;8.60;99.90
14192;DHT22;7177;48.572;7.838;2023-11-21T05:41:59;8.60;99.90
14192;DHT22;7177;48.572;7.838;2023-11-21T05:44:25;8.60;99.90
14192;DHT22;7177;48.572;7.838;2023-11-21T05:46:51;8.70;99.90
14192;DHT22;7177;48.572;7.838;2023-11-21T05:49:16;8.60;99.90
14192;DHT22;7177;48.572;7.838;2023-11-21T05:51:42;8.60;99.90
14192;DHT22;7177;48.572;7.838;2023-11-21T05:54:07;8.60;99.90
14192;DHT22;7177;48.572;7.838;2023-11-21T05:56:33;8.60;99.90
14192;DHT22;7177;48.572;7.838;2023-11-21T05:58:59;8.60;99.90
14192;DHT22;7177;48.572;7.838;2023-11-21T06:01:25;8.60;99.90
14192;DHT22;7177;48.572;7.838;2023-11-21T06:03:53;8.60;99.90
14192;DHT22;7177;48.572;7.838;2023-11-21T06:06:20;8.60;99.90
14192;DHT22;7177;48.572;7.838;2023-11-21T06:08:50;8.80;99.90
14192;DHT22;7177;48.572;7.838;2023-11-21T06:11:16;9.10;99.90
14192;DHT22;7177;48.572;7.838;2023-11-21T06:13:42;9.20;99.90
14192;DHT22;7177;48.572;7.838;2023-11-21T06:16:07;9.30;99.90
14192;DHT22;7177;48.572;7.838;2023-11-21T06:18:33;9.40;99.90
14192;DHT22;7177;48.572;7.838;2023-11-21T06:21:00;9.50;99.90
14192;DHT22;7177;48.572;7.838;2023-11-21T06:23:26;9.50;99.90
14192;DHT22;7177;48.572;7.838;2023-11-21T06:25:51;9.50;99.90
14192;DHT22;7177;48.572;7.838;2023-11-21T06:28:18;9.60;99.90
14192;DHT22;7177;48.572;7.838;2023-11-21T06:30:43;9.60;99.90
14192;DHT22;7177;48.572;7.838;2023-11-21T06:33:10;9.60;99.90
14192;DHT22;7177;48.572;7.838;2023-11-21T06:35:36;9.70;99.90
14192;DHT22;7177;48.572;7.838;2023-11-21T06:38:02;9.60;99.90
14192;DHT22;7177;48.572;7.838;2023-11-21T06:40:28;9.70;99.90
14192;DHT22;7177;48.572;7.838;2023-11-21T06:42:53;9.70;99.90
14192;DHT22;7177;48.572;7.838;2023-11-21T06:45:19;9.70;99.90
14192;DHT22;7177;48.572;7.838;2023-11-21T06:47:45;9.60;99.90
14192;DHT22;7177;48.572;7.838;2023-11-21T06:50:11;9.70;99.90
14192;DHT22;7177;48.572;7.838;2023-11-21T06:52:36;9.60;99.90
14192;DHT22;7177;48.572;7.838;2023-11-21T06:55:02;9.50;99.90
14192;DHT22;7177;48.572;7.838;2023-11-21T06:57:28;9.60;99.90
14192;DHT22;7177;48.572;7.838;2023-11-21T06:59:54;9.60;99.90
14192;DHT22;7177;48.572;7.838;2023-11-21T07:02:19;9.60;99.90
14192;DHT22;7177;48.572;7.838;2023-11-21T07:04:45;9.70;99.90
14192;DHT22;7177;48.572;7.838;2023-11-21T07:07:11;9.70;99.90
14192;DHT22;7177;48.572;7.838;2023-11-21T07:09:37;9.50;99.90
14192;DHT22;7177;48.572;7.838;2023-11-21T07:12:03;9.50;99.90
14192;DHT22;7177;48.572;7.838;2023-11-21T07:14:31;9.30;99.90
14192;DHT22;7177;48.572;7.838;2023-11-21T07:16:57;9.20;99.90
14192;DHT22;7177;48.572;7.838;2023-11-21T07:19:23;9.00;99.90
14192;DHT22;7177;48.572;7.838;2023-11-21T07:21:48;9.00;99.90
14192;DHT22;7177;48.572;7.838;2023-11-21T07:24:16;8.90;99.90
14192;DHT22;7177;48.572;7.838;2023-11-21T07:26:42;8.90;99.90
14192;DHT22;7177;48.572;7.838;2023-11-21T07:29:08;8.80;99.90
14192;DHT22;7177;48.572;7.838;2023-11-21T07:31:34;8.70;99.90
14192;DHT22;7177;48.572;7.838;2023-11-21T07:34:02;8.70;99.90
14192;DHT22;7177;48.572;7.838;2023-11-21T07:36:28;8.70;99.90
14192;DHT22;7177;48.572;7.838;2023-11-21T07:38:54;8.60;99.90
14192;DHT22;7177;48.572;7.838;2023-11-21T07:41:19;8.60;99.90
14192;DHT22;7177;48.572;7.838;2023-11-21T07:43:46;8.60;99.90
14192;DHT22;7177;48.572;7.838;2023-11-21T07:46:12;11.00;99.90
14192;DHT22;7177;48.572;7.838;2023-11-21T07:48:41;8.60;99.90
14192;DHT22;7177;48.572;7.838;2023-11-21T07:51:08;8.60;99.90
14192;DHT22;7177;48.572;7.838;2023-11-21T07:53:35;8.60;99.90
14192;DHT22;7177;48.572;7.838;2023-11-21T07:56:05;8.60;99.90
14192;DHT22;7177;48.572;7.838;2023-11-21T07:58:31;8.60;99.90
14192;DHT22;7177;48.572;7.838;2023-11-21T08:00:59;8.60;99.90
14192;DHT22;7177;48.572;7.838;2023-11-21T08:03:24;8.60;99.90
14192;DHT22;7177;48.572;7.838;2023-11-21T08:05:52;8.60;99.90
14192;DHT22;7177;48.572;7.838;2023-11-21T08:08:17;8.60;99.90
14192;DHT22;7177;48.572;7.838;2023-11-21T08:10:44;8.50;99.90
14192;DHT22;7177;48.572;7.838;2023-11-21T08:13:25;8.50;99.90
14192;DHT22;7177;48.572;7.838;2023-11-21T08:15:53;8.60;99.90
14192;DHT22;7177;48.572;7.838;2023-11-21T08:18:19;8.60;99.90
14192;DHT22;7177;48.572;7.838;2023-11-21T08:20:44;8.60;99.90
14192;DHT22;7177;48.572;7.838;2023-11-21T08:23:15;8.60;99.90
14192;DHT22;7177;48.572;7.838;2023-11-21T08:25:44;8.60;99.90
14192;DHT22;7177;48.572;7.838;2023-11-21T08:28:10;8.60;99.90
14192;DHT22;7177;48.572;7.838;2023-11-21T08:30:35;8.60;99.90
14192;DHT22;7177;48.572;7.838;2023-11-21T08:33:01;8.60;99.90
14192;DHT22;7177;48.572;7.838;2023-11-21T08:35:28;8.60;99.90
14192;DHT22;7177;48.572;7.838;2023-11-21T08:37:54;8.60;99.90
14192;DHT22;7177;48.572;7.838;2023-11-21T08:40:20;8.70;99.90
14192;DHT22;7177;48.572;7.838;2023-11-21T08:42:46;8.60;99.90
14192;DHT22;7177;48.572;7.838;2023-11-21T08:45:12;8.60;99.90
14192;DHT22;7177;48.572;7.838;2023-11-21T08:47:39;8.60;99.90
14192;DHT22;7177;48.572;7.838;2023-11-21T08:50:06;8.60;99.90
14192;DHT22;7177;48.572;7.838;2023-11-21T08:52:33;8.60;99.90
14192;DHT22;7177;48.572;7.838;2023-11-21T08:54:59;8.60;99.90
14192;DHT22;7177;48.572;7.838;2023-11-21T08:57:28;8.60;99.90
14192;DHT22;7177;48.572;7.838;2023-11-21T08:59:54;8.70;99.90
14192;DHT22;7177;48.572;7.838;2023-11-21T09:02:26;8.70;99.90
14192;DHT22;7177;48.572;7.838;2023-11-21T09:04:52;8.70;99.90
14192;DHT22;7177;48.572;7.838;2023-11-21T09:07:18;8.70;99.90
14192;DHT22;7177;48.572;7.838;2023-11-21T09:09:46;8.70;99.90
14192;DHT22;7177;48.572;7.838;2023-11-21T09:12:11;8.70;99.90
14192;DHT22;7177;48.572;7.838;2023-11-21T09:14:37;8.70;99.90
14192;DHT22;7177;48.572;7.838;2023-11-21T09:17:03;8.70;99.90
14192;DHT22;7177;48.572;7.838;2023-11-21T09:19:29;8.90;99.90
14192;DHT22;7177;48.572;7.838;2023-11-21T09:21:54;9.40;99.90
14192;DHT22;7177;48.572;7.838;2023-11-21T09:24:22;9.40;99.90
14192;DHT22;7177;48.572;7.838;2023-11-21T09:26:48;9.30;99.90
14192;DHT22;7177;48.572;7.838;2023-11-21T09:29:13;9.10;99.90
14192;DHT22;7177;48.572;7.838;2023-11-21T09:31:39;9.10;99.90
14192;DHT22;7177;48.572;7.838;2023-11-21T09:34:05;9.10;99.90
14192;DHT22;7177;48.572;7.838;2023-11-21T09:36:31;9.00;99.90
14192;DHT22;7177;48.572;7.838;2023-11-21T09:38:58;9.10;99.90
14192;DHT22;7177;48.572;7.838;2023-11-21T09:41:44;9.30;99.90
14192;DHT22;7177;48.572;7.838;2023-11-21T09:44:14;9.40;99.90
14192;DHT22;7177;48.572;7.838;2023-11-21T09:46:43;9.40;99.90
14192;DHT22;7177;48.572;7.838;2023-11-21T09:49:11;9.50;99.90
14192;DHT22;7177;48.572;7.838;2023-11-21T09:51:42;9.50;99.90
14192;DHT22;7177;48.572;7.838;2023-11-21T09:54:10;9.60;99.90
14192;DHT22;7177;48.572;7.838;2023-11-21T09:56:38;9.60;99.90
14192;DHT22;7177;48.572;7.838;2023-11-21T09:59:03;9.60;99.90
14192;DHT22;7177;48.572;7.838;2023-11-21T10:01:32;9.70;99.90
14192;DHT22;7177;48.572;7.838;2023-11-21T10:03:58;9.70;99.90
14192;DHT22;7177;48.572;7.838;2023-11-21T10:06:26;9.60;99.90
14192;DHT22;7177;48.572;7.838;2023-11-21T10:08:53;9.70;99.90
14192;DHT22;7177;48.572;7.838;2023-11-21T10:11:23;9.70;99.90
14192;DHT22;7177;48.572;7.838;2023-11-21T10:13:52;9.70;99.90
14192;DHT22;7177;48.572;7.838;2023-11-21T10:16:19;9.70;99.90
14192;DHT22;7177;48.572;7.838;2023-11-21T10:18:48;9.70;99.90
14192;DHT22;7177;48.572;7.838;2023-11-21T10:21:18;9.80;99.90
14192;DHT22;7177;48.572;7.838;2023-11-21T10:23:44;9.80;99.90
14192;DHT22;7177;48.572;7.838;2023-11-21T10:26:11;9.80;99.90
14192;DHT22;7177;48.572;7.838;2023-11-21T10:28:54;9.80;99.90
14192;DHT22;7177;48.572;7.838;2023-11-21T10:31:21;9.80;99.90
14192;DHT22;7177;48.572;7.838;2023-11-21T10:33:46;9.90;99.90
14192;DHT22;7177;48.572;7.838;2023-11-21T10:36:12;9.80;99.90
14192;DHT22;7177;48.572;7.838;2023-11-21T10:38:42;9.80;99.90
14192;DHT22;7177;48.572;7.838;2023-11-21T10:41:11;9.90;99.90
14192;DHT22;7177;48.572;7.838;2023-11-21T10:43:38;9.90;99.90
14192;DHT22;7177;48.572;7.838;2023-11-21T10:46:05;10.00;99.90
14192;DHT22;7177;48.572;7.838;2023-11-21T10:48:31;10.00;99.90
14192;DHT22;7177;48.572;7.838;2023-11-21T10:50:58;10.10;99.90
14192;DHT22;7177;48.572;7.838;2023-11-21T10:53:24;10.10;99.90
14192;DHT22;7177;48.572;7.838;2023-11-21T10:56:05;10.20;99.90
14192;DHT22;7177;48.572;7.838;2023-11-21T10:58:32;10.30;99.90
14192;DHT22;7177;48.572;7.838;2023-11-21T11:00:59;10.40;99.90
14192;DHT22;7177;48.572;7.838;2023-11-21T11:03:25;10.40;99.90
14192;DHT22;7177;48.572;7.838;2023-11-21T11:05:52;10.40;99.90
14192;DHT22;7177;48.572;7.838;2023-11-21T11:08:21;10.30;99.90
14192;DHT22;7177;48.572;7.838;2023-11-21T11:10:51;10.30;99.90
14192;DHT22;7177;48.572;7.838;2023-11-21T11:13:18;10.20;99.90
14192;DHT22;7177;48.572;7.838;2023-11-21T11:15:47;10.10;99.90
14192;DHT22;7177;48.572;7.838;2023-11-21T11:18:13;10.10;99.90
14192;DHT22;7177;48.572;7.838;2023-11-21T11:20:41;10.00;99.90
14192;DHT22;7177;48.572;7.838;2023-11-21T11:23:20;10.00;99.90
14192;DHT22;7177;48.572;7.838;2023-11-21T11:29:35;10.00;99.90
14192;DHT22;7177;48.572;7.838;2023-11-21T11:32:21;10.00;99.90
14192;DHT22;7177;48.572;7.838;2023-11-21T11:35:07;10.00;99.90
14192;DHT22;7177;48.572;7.838;2023-11-21T11:37:35;10.10;99.90
14192;DHT22;7177;48.572;7.838;2023-11-21T11:40:00;10.10;99.90
14192;DHT22;7177;48.572;7.838;2023-11-21T11:42:26;10.10;99.90
14192;DHT22;7177;48.572;7.838;2023-11-21T11:44:52;10.10;99.90
14192;DHT22;7177;48.572;7.838;2023-11-21T11:47:22;10.10;99.90
14192;DHT22;7177;48.572;7.838;2023-11-21T11:50:01;10.10;99.90
14192;DHT22;7177;48.572;7.838;2023-11-21T11:52:46;10.20;99.90
14192;DHT22;7177;48.572;7.838;2023-11-21T11:55:14;10.20;99.90
14192;DHT22;7177;48.572;7.838;2023-11-21T11:57:42;10.20;99.90
14192;DHT22;7177;48.572;7.838;2023-11-21T12:00:21;10.30;99.90
14192;DHT22;7177;48.572;7.838;2023-11-21T12:02:55;10.30;99.90
14192;DHT22;7177;48.572;7.838;2023-11-21T12:05:22;10.40;99.90
14192;DHT22;7177;48.572;7.838;2023-11-21T12:07:52;10.40;99.90
14192;DHT22;7177;48.572;7.838;2023-11-21T12:10:23;10.40;99.90
14192;DHT22;7177;48.572;7.838;2023-11-21T12:12:52;10.40;99.90
14192;DHT22;7177;48.572;7.838;2023-11-21T12:15:18;10.40;99.90
14192;DHT22;7177;48.572;7.838;2023-11-21T12:17:45;10.40;99.90
14192;DHT22;7177;48.572;7.838;2023-11-21T12:20:12;10.40;99.90
14192;DHT22;7177;48.572;7.838;2023-11-21T12:22:44;10.40;99.90
14192;DHT22;7177;48.572;7.838;2023-11-21T12:25:19;10.40;99.90
14192;DHT22;7177;48.572;7.838;2023-11-21T12:27:50;10.40;99.90
14192;DHT22;7177;48.572;7.838;2023-11-21T12:30:17;10.40;99.90
14192;DHT22;7177;48.572;7.838;2023-11-21T12:32:44;10.30;99.90
14192;DHT22;7177;48.572;7.838;2023-11-21T12:35:13;10.30;99.90
14192;DHT22;7177;48.572;7.838;2023-11-21T12:37:39;10.30;99.90
14192;DHT22;7177;48.572;7.838;2023-11-21T12:40:06;10.20;99.90
14192;DHT22;7177;48.572;7.838;2023-11-21T12:42:39;10.20;99.90
14192;DHT22;7177;48.572;7.838;2023-11-21T12:45:31;10.10;99.90
14192;DHT22;7177;48.572;7.838;2023-11-21T12:48:00;10.10;99.90
14192;DHT22;7177;48.572;7.838;2023-11-21T12:50:29;10.10;99.90
14192;DHT22;7177;48.572;7.838;2023-11-21T12:53:02;10.10;99.90
14192;DHT22;7177;48.572;7.838;2023-11-21T12:55:31;10.20;99.90
14192;DHT22;7177;48.572;7.838;2023-11-21T12:57:56;10.20;99.90
14192;DHT22;7177;48.572;7.838;2023-11-21T13:00:33;10.20;99.90
14192;DHT22;7177;48.572;7.838;2023-11-21T13:03:03;10.30;99.90
14192;DHT22;7177;48.572;7.838;2023-11-21T13:05:29;10.30;99.90
14192;DHT22;7177;48.572;7.838;2023-11-21T13:07:57;10.30;99.90
14192;DHT22;7177;48.572;7.838;2023-11-21T13:10:27;10.30;99.90
14192;DHT22;7177;48.572;7.838;2023-11-21T13:12:59;10.40;99.90
14192;DHT22;7177;48.572;7.838;2023-11-21T13:15:26;10.40;99.90
14192;DHT22;7177;48.572;7.838;2023-11-21T13:17:52;10.40;99.90
14192;DHT22;7177;48.572;7.838;2023-11-21T13:20:19;10.40;99.90
14192;DHT22;7177;48.572;7.838;2023-11-21T13:25:11;10.30;99.90
14192;DHT22;7177;48.572;7.838;2023-11-21T13:27:37;10.20;99.90
14192;DHT22;7177;48.572;7.838;2023-11-21T13:30:03;10.20;99.90
14192;DHT22;7177;48.572;7.838;2023-11-21T13:32:29;10.20;99.90
14192;DHT22;7177;48.572;7.838;2023-11-21T13:34:54;10.20;99.90
14192;DHT22;7177;48.572;7.838;2023-11-21T13:37:20;10.10;99.90
14192;DHT22;7177;48.572;7.838;2023-11-21T13:39:46;10.10;99.90
14192;DHT22;7177;48.572;7.838;2023-11-21T13:42:15;10.10;99.90
14192;DHT22;7177;48.572;7.838;2023-11-21T13:44:42;10.10;99.90
14192;DHT22;7177;48.572;7.838;2023-11-21T13:47:12;10.00;99.90
14192;DHT22;7177;48.572;7.838;2023-11-21T13:49:37;10.00;99.90
14192;DHT22;7177;48.572;7.838;2023-11-21T13:52:06;9.90;99.90
14192;DHT22;7177;48.572;7.838;2023-11-21T13:54:33;9.90;99.90
14192;DHT22;7177;48.572;7.838;2023-11-21T13:56:58;9.70;99.90
14192;DHT22;7177;48.572;7.838;2023-11-21T13:59:25;9.60;99.90
14192;DHT22;7177;48.572;7.838;2023-11-21T14:01:55;9.60;99.90
14192;DHT22;7177;48.572;7.838;2023-11-21T14:04:20;9.50;99.90
14192;DHT22;7177;48.572;7.838;2023-11-21T14:07:00;9.50;99.90
14192;DHT22;7177;48.572;7.838;2023-11-21T14:09:36;9.50;99.90
14192;DHT22;7177;48.572;7.838;2023-11-21T14:12:09;9.50;99.90
14192;DHT22;7177;48.572;7.838;2023-11-21T14:14:37;9.50;99.90
14192;DHT22;7177;48.572;7.838;2023-11-21T14:17:04;9.50;99.90
14192;DHT22;7177;48.572;7.838;2023-11-21T14:19:32;9.50;99.90
14192;DHT22;7177;48.572;7.838;2023-11-21T14:21:59;9.50;99.90
14192;DHT22;7177;48.572;7.838;2023-11-21T14:24:25;9.50;99.90
14192;DHT22;7177;48.572;7.838;2023-11-21T14:26:51;9.50;99.90
14192;DHT22;7177;48.572;7.838;2023-11-21T14:29:17;9.50;99.90
14192;DHT22;7177;48.572;7.838;2023-11-21T14:31:45;9.50;99.90
14192;DHT22;7177;48.572;7.838;2023-11-21T14:34:11;9.50;99.90
14192;DHT22;7177;48.572;7.838;2023-11-21T14:36:38;9.40;99.90
14192;DHT22;7177;48.572;7.838;2023-11-21T14:39:05;9.40;99.90
14192;DHT22;7177;48.572;7.838;2023-11-21T14:41:41;9.40;99.90
14192;DHT22;7177;48.572;7.838;2023-11-21T14:44:08;9.40;99.90
14192;DHT22;7177;48.572;7.838;2023-11-21T14:46:37;9.40;99.90
14192;DHT22;7177;48.572;7.838;2023-11-21T14:49:05;9.50;99.90
14192;DHT22;7177;48.572;7.838;2023-11-21T14:51:46;9.50;99.90
14192;DHT22;7177;48.572;7.838;2023-11-21T14:54:32;9.50;99.90
14192;DHT22;7177;48.572;7.838;2023-11-21T14:57:10;9.50;99.90
14192;DHT22;7177;48.572;7.838;2023-11-21T14:59:42;9.50;99.90
14192;DHT22;7177;48.572;7.838;2023-11-21T15:02:08;9.50;99.90
14192;DHT22;7177;48.572;7.838;2023-11-21T15:04:42;9.50;99.90
14192;DHT22;7177;48.572;7.838;2023-11-21T15:07:08;9.40;99.90
14192;DHT22;7177;48.572;7.838;2023-11-21T15:09:34;9.40;99.90
14192;DHT22;7177;48.572;7.838;2023-11-21T15:12:00;9.50;99.90
14192;DHT22;7177;48.572;7.838;2023-11-21T15:14:55;9.50;99.90
14192;DHT22;7177;48.572;7.838;2023-11-21T15:17:23;9.50;99.90
14192;DHT22;7177;48.572;7.838;2023-11-21T15:19:52;9.50;99.90
14192;DHT22;7177;48.572;7.838;2023-11-21T15:22:18;9.50;99.90
14192;DHT22;7177;48.572;7.838;2023-11-21T15:24:44;9.50;99.90
14192;DHT22;7177;48.572;7.838;2023-11-21T15:27:12;9.50;99.90
14192;DHT22;7177;48.572;7.838;2023-11-21T15:29:41;9.40;99.90
14192;DHT22;7177;48.572;7.838;2023-11-21T15:32:08;9.40;99.90
14192;DHT22;7177;48.572;7.838;2023-11-21T15:34:34;9.40;99.90
14192;DHT22;7177;48.572;7.838;2023-11-21T15:37:00;9.50;99.90
14192;DHT22;7177;48.572;7.838;2023-11-21T15:39:25;9.40;99.90
14192;DHT22;7177;48.572;7.838;2023-11-21T15:41:56;9.40;99.90
14192;DHT22;7177;48.572;7.838;2023-11-21T15:44:21;9.40;99.90
14192;DHT22;7177;48.572;7.838;2023-11-21T15:46:48;9.40;99.90
14192;DHT22;7177;48.572;7.838;2023-11-21T15:49:13;9.40;99.90
14192;DHT22;7177;48.572;7.838;2023-11-21T15:51:44;9.40;99.90
14192;DHT22;7177;48.572;7.838;2023-11-21T15:54:22;9.40;99.90
14192;DHT22;7177;48.572;7.838;2023-11-21T15:56:48;9.40;99.90
14192;DHT22;7177;48.572;7.838;2023-11-21T15:59:14;9.30;99.90
14192;DHT22;7177;48.572;7.838;2023-11-21T16:01:40;9.30;99.90
14192;DHT22;7177;48.572;7.838;2023-11-21T16:04:13;9.30;99.90
14192;DHT22;7177;48.572;7.838;2023-11-21T16:06:45;9.30;99.90
14192;DHT22;7177;48.572;7.838;2023-11-21T16:09:12;9.30;99.90
14192;DHT22;7177;48.572;7.838;2023-11-21T16:11:47;9.20;99.90
14192;DHT22;7177;48.572;7.838;2023-11-21T16:14:13;9.20;99.90
14192;DHT22;7177;48.572;7.838;2023-11-21T16:16:39;9.20;99.90
14192;DHT22;7177;48.572;7.838;2023-11-21T16:19:05;9.10;99.90
14192;DHT22;7177;48.572;7.838;2023-11-21T16:21:32;9.20;99.90
14192;DHT22;7177;48.572;7.838;2023-11-21T16:23:58;9.10;99.90
14192;DHT22;7177;48.572;7.838;2023-11-21T16:26:23;9.10;99.90